• Join FlightAware (Why Join?)
  • Login
  • US Flag 
05:28PM EDT


 

Airport Tracker/Info


-or-


 

Live Flight TrackerFlight Track Log ✈ GGN7280 ✈ 31-May-2013 ✈ CYYZ - KALB

Flight Track Log - Related Links

Times and Time Zones

All times are in EDT time to prevent confusion due to time zone crossing. See the GGN7280 flight status page for this flight to view local times or setup timezone preferences in your user account.

Time Position Orientation Groundspeed Altitude Reporting Facility
EDT Latitude Longitude Course Direction KTS MPH feet Rate Location/Type
10:05AM 43.6500 -79.5833 125° Southeast 140 161 1,700  Level Toronto Center
10:06AM 43.6000 -79.5667 166° South 160 184 3,700 1,620 Climbing Toronto Center
10:07AM 43.5833 -79.5000 109° East 200 230 5,000 1,500 Climbing Toronto Center
10:08AM 43.5667 -79.4333 109° East 210 242 6,700 1,500 Climbing Toronto Center
10:09AM 43.5500 -79.3500 105° East 210 242 8,100 1,560 Climbing Toronto Center
10:10AM 43.5333 -79.2667 105° East 220 253 9,900 1,800 Climbing Toronto Center
10:11AM 43.5926 -79.0021 125° Southeast  Level Estimated
10:11AM 43.5167 -79.2000 109° East 220 253 11,700  Level Toronto Center
10:12AM 43.5000 -79.1000 103° East 230 265 13,200 1,560 Climbing Toronto Center
10:13AM 43.4833 -79.0167 105° East 240 276 14,900 1,500 Climbing Toronto Center
10:14AM 43.4833 -78.9167 90° East 250 288 16,200 1,320 Climbing Toronto Center
10:15AM 43.4667 -78.8333 105° East 250 288 17,600 1,500 Climbing Toronto Center
10:16AM 43.4500 -78.7333 103° East 250 288 19,200 1,440 Climbing Toronto Center
10:17AM 43.4500 -78.6500 90° East 240 276 20,500 1,140 Climbing Toronto Center
10:18AM 43.4481 -78.6217 95° East 238 274 20,900 1,020 Climbing Cleveland Center
10:19AM 43.4361 -78.5306 100° East 238 274 22,000 1,020 Climbing Cleveland Center
10:20AM 43.4261 -78.4394 99° East 238 274 23,000 480 Climbing Cleveland Center
10:21AM 43.4139 -78.3369 99° East 244 281 23,000  Level Cleveland Center
10:22AM 43.3992 -78.2289 101° East 267 307 23,000  Level Cleveland Center
10:23AM 43.3864 -78.1208 99° East 278 320 23,000  Level Cleveland Center
10:24AM 43.3736 -78.0128 99° East 283 326 23,000  Level Cleveland Center
10:25AM 43.3608 -77.9078 99° East 283 326 23,000  Level Cleveland Center
10:26AM 43.3458 -77.7969 101° East 283 326 23,000  Level Cleveland Center
10:27AM 43.3286 -77.6894 102° East 283 326 23,000 -60 Level Cleveland Center
10:28AM 43.3133 -77.5817 101° East 283 326 22,900  Descending Cleveland Center
10:29AM 43.3022 -77.4736 98° East 283 326 23,000  Climbing Cleveland Center
10:30AM 43.2667 -77.2667 103° East 290 334 23,000  Level Toronto Center
10:31AM 43.2500 -77.1667 103° East 290 334 23,000 -60 Level Toronto Center
10:32AM 43.2333 -77.0667 103° East 290 334 22,900  Descending Toronto Center
10:33AM 43.2333 -76.9500 90° East 290 334 23,000  Climbing Toronto Center
10:34AM 43.2167 -76.8500 103° East 280 322 23,000  Level Toronto Center
10:35AM 43.2000 -76.7500 103° East 290 334 23,000  Level Toronto Center
10:36AM 43.1833 -76.6333 101° East 290 334 23,000  Level Toronto Center
10:37AM 43.1667 -76.5167 101° East 290 334 23,000  Level Toronto Center
10:38AM 43.1500 -76.4333 105° East 290 334 23,000  Level Toronto Center
10:39AM 43.1333 -76.3167 101° East 290 334 23,000  Level Toronto Center
10:40AM 43.1167 -76.2000 101° East 290 334 23,000  Level Toronto Center
10:41AM 43.1142 -76.1239 93° East 281 323 23,000  Level Boston Center
10:42AM 43.0986 -76.0206 102° East 281 323 23,000  Level Boston Center
10:43AM 43.0811 -75.9142 103° East 281 323 23,000  Level Boston Center
10:44AM 43.0697 -75.8083 98° East 281 323 23,000  Level Boston Center
10:45AM 43.0519 -75.7050 103° East 281 323 23,000  Level Boston Center
10:46AM 43.0378 -75.6106 102° East 281 323 23,000  Level Boston Center
10:47AM 43.0200 -75.5044 103° East 281 323 23,000  Level Boston Center
10:48AM 43.0061 -75.3986 100° East 276 318 23,000 -300 Level Boston Center
10:49AM 43.0025 -75.2906 93° East 282 325 22,400 -1,140 Descending Boston Center
10:50AM 42.9947 -75.1794 95° East 282 325 20,800 -1,620 Descending Boston Center
10:51AM 42.9911 -75.0714 116° Southeast 282 325 19,200 -1,440 Descending Boston Center
10:52AM 42.9615 -75.0884 116° Southeast  Level FlightAware Approximate
10:52AM 42.9936 -74.9608 88° East 282 325 18,000  Level Boston Center
10:53AM 42.9917 -74.8586 91° East 282 325 16,800 -1,380 Descending Boston Center
10:54AM 42.9900 -74.7308 91° East 292 336 15,300 -1,380 Descending Boston Center
10:55AM 42.9878 -74.6314 92° East 292 336 14,100 -1,560 Descending Boston Center
10:56AM 42.9861 -74.5036 91° East 292 336 12,200 -1,860 Descending Boston Center
10:57AM 42.9867 -74.4667 89° East 301 346 11,500 -1,320 Descending Boston Center
10:57AM 42.9878 -74.4042 89° East 292 336 10,900 -1,380 Descending Boston Center
10:58AM 42.9908 -74.3561 85° East 290 334 10,100 -1,800 Descending Boston Center
10:58AM 42.9919 -74.2853 89° East 287 330 9,100 -1,680 Descending Boston Center
10:59AM 42.9944 -74.2569 83° East 283 326 8,600 -1,320 Descending Boston Center
10:59AM 42.9975 -74.1917 86° East 287 330 7,800 -1,320 Descending Boston Center
11:00AM 42.9983 -74.1492 88° East 277 319 7,300 -1,620 Descending Boston Center
11:00AM 43.0033 -74.0783 84° East 277 319 6,200 -1,380 Descending Boston Center
11:01AM 43.0039 -74.0469 89° East 270 311 5,900 -1,020 Descending Boston Center
11:01AM 43.0025 -73.9872 92° East 271 312 5,200 -1,200 Descending Boston Center
11:02AM 42.9906 -73.9472 112° Southeast 262 302 4,700 -1,140 Descending Boston Center
11:02AM 42.9600 -73.9039 134° Southeast 246 283 4,100 -840 Descending Boston Center
11:03AM 42.9414 -73.8867 146° Southeast 232 267 3,900 -540 Descending Boston Center
11:03AM 42.9106 -73.8603 148° Southeast 230 265 3,600 -300 Descending Boston Center
11:04AM 42.8836 -73.8369 148° Southeast 214 246 3,600 -120 Level Boston Center
11:04AM 42.8631 -73.8194 148° Southeast 218 251 3,500 -840 Descending Boston Center
11:05AM 42.8297 -73.8075 165° South 202 232 2,800 -720 Descending Boston Center
11:05AM 42.8053 -73.7814 142° Southeast 213 245 2,800 -1,620 Level Boston Center
11:06AM 42.7839 -73.8064 221° Southwest 119 137 1,000 -2,940 Descending Boston Center